Time;durP1;ratioP1;P1;durP2;ratioP2;P2;SDS_P1;SDS_P2;PMS_P1;PMS_P2;Temp;Humidity;BMP_temperature;BMP_pressure;BME280_temperature;BME280_humidity;BME280_pressure;Samples;Min_cycle;Max_cycle;Signal;HPM_P1;HPM_P2
2022/04/11 00:02:16;;;;;;;;;31.50;29.25;6.80;61.90;;;;;;4976721;28;8836;-59
2022/04/11 00:04:41;;;;;;;;;28.25;27.75;7.00;61.40;;;;;;4976710;28;8799;-59
2022/04/11 00:07:07;;;;;;;;;33.00;30.00;7.00;61.80;;;;;;4976886;28;8788;-59
2022/04/11 00:09:34;;;;;;;;;28.25;28.25;7.00;61.20;;;;;;4976699;28;8773;-59
2022/04/11 00:12:00;;;;;;;;;24.00;24.00;6.90;61.90;;;;;;4976695;28;9522;-59
2022/04/11 00:14:25;;;;;;;;;29.00;24.25;6.80;62.20;;;;;;4976761;28;8805;-60
2022/04/11 00:16:51;;;;;;;;;24.50;21.25;6.40;63.80;;;;;;4976730;28;8800;-60
2022/04/11 00:19:17;;;;;;;;;31.75;29.50;6.30;64.70;;;;;;4976741;28;8899;-59
2022/04/11 00:21:43;;;;;;;;;25.50;24.00;6.10;65.60;;;;;;4976308;28;8793;-59
2022/04/11 00:24:09;;;;;;;;;30.25;28.25;6.40;65.20;;;;;;4976346;28;8781;-59
2022/04/11 00:26:35;;;;;;;;;31.75;28.50;6.50;65.00;;;;;;4976358;28;8818;-59
2022/04/11 00:29:01;;;;;;;;;33.75;30.25;6.40;65.50;;;;;;4976183;28;8785;-58
2022/04/11 00:31:26;;;;;;;;;55.00;45.50;6.50;65.90;;;;;;4946918;28;8895;-59
2022/04/11 00:33:52;;;;;;;;;22.00;21.75;6.70;64.80;;;;;;4956910;28;8787;-59
2022/04/11 00:36:18;;;;;;;;;29.50;27.50;6.80;63.70;;;;;;4957417;28;8798;-57
2022/04/11 00:38:44;;;;;;;;;33.25;29.25;7.10;62.40;;;;;;4956022;28;8798;-59
2022/04/11 00:41:10;;;;;;;;;30.75;29.50;6.90;63.30;;;;;;4957044;28;8785;-59
2022/04/11 00:43:38;;;;;;;;;28.50;26.00;6.70;64.10;;;;;;4957001;28;8795;-60
2022/04/11 00:46:05;;;;;;;;;30.75;28.75;6.40;64.80;;;;;;4956974;28;8791;-57
2022/04/11 00:48:31;;;;;;;;;30.25;29.25;6.30;65.60;;;;;;4956725;28;8810;-56
2022/04/11 00:51:05;;;;;;;;;34.75;31.25;6.50;65.40;;;;;;4956595;28;8812;-55
2022/04/11 00:53:32;;;;;;;;;31.25;31.25;6.60;65.00;;;;;;4956766;28;8800;-56
2022/04/11 00:56:00;;;;;;;;;28.75;26.00;6.50;64.90;;;;;;4956604;28;8792;-56
2022/04/11 00:58:26;;;;;;;;;16.25;14.25;6.40;65.00;;;;;;4955890;28;9462;-57
2022/04/11 01:00:52;;;;;;;;;29.00;26.25;6.40;65.20;;;;;;4957120;28;8800;-57
2022/04/11 01:03:17;;;;;;;;;29.75;29.75;6.40;65.60;;;;;;4956657;28;8831;-56
2022/04/11 01:05:43;;;;;;;;;34.25;29.75;6.60;64.20;;;;;;4956411;28;8780;-59
2022/04/11 01:08:10;;;;;;;;;19.25;18.25;6.60;64.20;;;;;;4956594;28;8803;-57
2022/04/11 01:10:36;;;;;;;;;30.25;29.00;6.70;64.00;;;;;;4956361;28;8781;-57
2022/04/11 01:13:03;;;;;;;;;31.25;29.50;6.40;64.50;;;;;;4956572;28;8768;-57
2022/04/11 01:15:29;;;;;;;;;29.75;28.50;6.20;65.00;;;;;;4956246;28;8803;-57
2022/04/11 01:17:55;;;;;;;;;24.25;23.50;6.40;64.60;;;;;;4956516;28;9485;-57
2022/04/11 01:20:21;;;;;;;;;24.50;21.50;6.70;63.40;;;;;;4956485;28;8783;-56
2022/04/11 01:22:48;;;;;;;;;27.50;24.50;6.30;64.10;;;;;;4956416;28;8824;-57
2022/04/11 01:25:15;;;;;;;;;28.25;26.75;6.50;64.20;;;;;;4956569;28;8854;-57
2022/04/11 01:27:42;;;;;;;;;27.00;24.50;6.40;63.90;;;;;;4956205;28;8772;-57
2022/04/11 01:30:09;;;;;;;;;21.25;20.75;6.40;64.10;;;;;;4956299;29;8820;-56
2022/04/11 01:32:37;;;;;;;;;26.25;24.50;6.80;62.90;;;;;;4956117;29;8780;-57
2022/04/11 01:35:03;;;;;;;;;29.00;29.00;7.00;61.40;;;;;;4956376;29;8811;-57
2022/04/11 01:37:28;;;;;;;;;28.75;28.25;7.10;61.20;;;;;;4956071;29;8784;-57
2022/04/11 01:39:54;;;;;;;;;37.25;36.25;7.30;60.60;;;;;;4956093;28;8866;-57
2022/04/11 01:42:20;;;;;;;;;30.50;23.50;7.20;60.30;;;;;;4956279;28;8808;-57
2022/04/11 01:44:46;;;;;;;;;32.50;29.50;6.90;61.30;;;;;;4956270;28;8812;-57
2022/04/11 01:47:13;;;;;;;;;19.00;16.50;6.50;62.50;;;;;;4956126;28;9652;-56
2022/04/11 01:49:39;;;;;;;;;26.00;25.75;6.60;63.20;;;;;;4957426;28;8792;-57
2022/04/11 01:52:05;;;;;;;;;29.50;27.50;6.60;63.40;;;;;;4959743;28;8812;-56
2022/04/11 01:54:31;;;;;;;;;31.75;29.50;6.70;62.60;;;;;;4959804;28;8814;-59
2022/04/11 01:56:57;;;;;;;;;29.25;28.75;6.90;61.10;;;;;;4959962;28;8812;-56
2022/04/11 01:59:23;;;;;;;;;28.75;26.00;6.70;61.80;;;;;;4959691;28;8816;-56
2022/04/11 02:01:48;;;;;;;;;26.50;24.25;6.60;62.70;;;;;;4959544;28;8812;-57
2022/04/11 02:04:14;;;;;;;;;23.75;23.50;6.70;62.70;;;;;;4959611;28;8776;-57
2022/04/11 02:06:40;;;;;;;;;35.00;30.25;6.50;62.40;;;;;;4959792;28;8804;-56
2022/04/11 02:09:06;;;;;;;;;29.00;24.75;6.50;63.50;;;;;;4959563;28;8810;-56
2022/04/11 02:11:32;;;;;;;;;25.00;25.00;6.50;63.40;;;;;;4959709;28;8867;-57
2022/04/11 02:13:59;;;;;;;;;31.75;26.00;6.30;63.80;;;;;;4959435;28;8780;-57
2022/04/11 02:16:24;;;;;;;;;32.25;29.75;6.50;62.50;;;;;;4959644;28;8807;-57
2022/04/11 02:18:50;;;;;;;;;22.50;20.00;6.40;63.10;;;;;;4959637;28;8804;-57
2022/04/11 02:21:16;;;;;;;;;31.25;25.00;6.60;62.70;;;;;;4959295;28;8800;-57
2022/04/11 02:23:42;;;;;;;;;24.75;24.00;6.30;63.40;;;;;;4959537;28;8901;-57
2022/04/11 02:26:08;;;;;;;;;23.50;23.50;6.30;63.90;;;;;;4959542;28;8776;-56
2022/04/11 02:28:35;;;;;;;;;23.75;21.00;6.40;63.20;;;;;;4959450;28;8804;-57
2022/04/11 02:31:00;;;;;;;;;25.00;21.00;6.20;64.40;;;;;;4959356;28;8828;-57
2022/04/11 02:33:26;;;;;;;;;23.50;22.50;6.20;64.40;;;;;;4959197;28;8792;-56
2022/04/11 02:35:52;;;;;;;;;21.75;21.00;6.20;64.30;;;;;;4959325;28;8826;-56
2022/04/11 02:38:18;;;;;;;;;25.00;24.00;6.30;63.60;;;;;;4959087;28;8784;-57
2022/04/11 02:40:43;;;;;;;;;22.25;20.50;6.50;63.10;;;;;;4950506;28;8776;-57
2022/04/11 02:43:09;;;;;;;;;26.75;22.75;6.50;63.10;;;;;;4939943;29;8844;-57
2022/04/11 02:45:35;;;;;;;;;21.00;19.00;6.10;63.80;;;;;;4940013;29;8821;-56
2022/04/11 02:48:00;;;;;;;;;20.75;19.00;6.10;64.60;;;;;;4939664;29;9446;-57
2022/04/11 02:50:26;;;;;;;;;24.25;23.75;6.00;65.70;;;;;;4939318;29;8826;-55
2022/04/11 02:52:52;;;;;;;;;17.75;16.00;5.70;66.70;;;;;;4939867;29;8803;-57
2022/04/11 02:55:18;;;;;;;;;19.75;19.75;5.80;66.00;;;;;;4939838;29;8809;-57
2022/04/11 02:57:43;;;;;;;;;23.25;22.50;5.80;66.60;;;;;;4949509;28;8823;-57
2022/04/11 03:00:13;;;;;;;;;23.25;19.50;5.80;67.10;;;;;;4958709;28;8804;-56
2022/04/11 03:02:39;;;;;;;;;26.50;23.25;5.80;66.50;;;;;;4957995;28;8986;-57
2022/04/11 03:05:05;;;;;;;;;25.75;24.25;5.90;66.10;;;;;;4958822;28;8792;-57
2022/04/11 03:07:31;;;;;;;;;26.50;24.50;5.90;66.50;;;;;;4958747;28;8781;-57
2022/04/11 03:09:57;;;;;;;;;23.75;23.75;5.60;67.20;;;;;;4958733;28;8927;-56
2022/04/11 03:12:25;;;;;;;;;25.75;20.50;5.50;67.70;;;;;;4958741;28;8799;-56
2022/04/11 03:14:51;;;;;;;;;21.50;21.50;5.50;67.30;;;;;;4958464;28;8776;-57
2022/04/11 03:17:17;;;;;;;;;19.50;18.00;5.70;66.70;;;;;;4958303;28;8788;-57
2022/04/11 03:19:44;;;;;;;;;25.50;21.25;5.90;66.00;;;;;;4958357;28;8788;-57
2022/04/11 03:22:11;;;;;;;;;24.75;22.50;6.10;65.20;;;;;;4958473;28;8919;-57
2022/04/11 03:24:37;;;;;;;;;25.00;25.00;5.70;66.70;;;;;;4958208;28;8839;-57
2022/04/11 03:27:03;;;;;;;;;25.50;23.25;5.90;65.90;;;;;;4958458;28;8795;-57
2022/04/11 03:29:30;;;;;;;;;24.00;23.50;5.80;66.10;;;;;;4958127;28;8824;-57
2022/04/11 03:31:55;;;;;;;;;24.50;23.00;5.70;66.20;;;;;;4958251;28;8821;-57
2022/04/11 03:34:21;;;;;;;;;19.75;19.50;5.70;66.80;;;;;;4958060;28;8772;-57
2022/04/11 03:36:47;;;;;;;;;22.75;22.75;5.50;67.30;;;;;;4958185;28;8912;-56
2022/04/11 03:39:13;;;;;;;;;21.00;21.00;5.50;67.20;;;;;;4952721;28;8790;-56
2022/04/11 03:41:39;;;;;;;;;21.50;20.75;5.60;67.50;;;;;;4946524;29;8888;-57
2022/04/11 03:44:05;;;;;;;;;22.00;22.00;5.60;67.00;;;;;;4938708;29;8787;-55
2022/04/11 03:46:30;;;;;;;;;23.25;23.25;5.40;68.20;;;;;;4938827;29;8782;-56
2022/04/11 03:48:57;;;;;;;;;25.00;25.00;5.30;69.00;;;;;;4938751;29;8905;-57
2022/04/11 03:51:22;;;;;;;;;17.50;17.50;5.40;68.50;;;;;;4938460;29;8811;-57
2022/04/11 03:53:48;;;;;;;;;17.00;15.00;5.40;69.00;;;;;;4938540;29;9838;-56
2022/04/11 03:56:17;;;;;;;;;23.75;22.00;5.70;67.80;;;;;;4938530;29;8861;-57
2022/04/11 03:58:43;;;;;;;;;24.25;23.00;5.70;66.90;;;;;;4938604;29;8779;-57
2022/04/11 04:01:09;;;;;;;;;23.00;22.50;5.80;67.10;;;;;;4938716;29;8834;-59
2022/04/11 04:03:36;;;;;;;;;24.00;22.75;5.90;65.90;;;;;;4938506;29;9481;-58
2022/04/11 04:06:02;;;;;;;;;18.25;15.00;6.00;65.40;;;;;;4938312;29;8810;-59
2022/04/11 04:08:28;;;;;;;;;30.50;24.00;6.00;65.10;;;;;;4938300;29;8763;-58
2022/04/11 04:10:53;;;;;;;;;26.25;23.50;5.80;65.50;;;;;;4938339;29;8771;-57
2022/04/11 04:13:19;;;;;;;;;27.00;27.00;6.10;64.80;;;;;;4937990;29;8775;-58
2022/04/11 04:15:45;;;;;;;;;28.00;27.00;6.00;65.60;;;;;;4938138;29;8795;-58
2022/04/11 04:18:12;;;;;;;;;20.25;20.25;6.20;64.90;;;;;;4937960;29;8866;-58
2022/04/11 04:20:41;;;;;;;;;27.25;27.25;6.30;63.70;;;;;;4938167;29;8786;-57
2022/04/11 04:23:07;;;;;;;;;27.50;27.25;5.90;65.40;;;;;;4938117;29;8961;-58
2022/04/11 04:25:34;;;;;;;;;28.25;28.25;6.00;65.30;;;;;;4938029;29;8910;-58
2022/04/11 04:28:01;;;;;;;;;36.75;34.50;5.70;65.90;;;;;;4938157;29;8803;-59
2022/04/11 04:30:28;;;;;;;;;31.75;31.50;5.90;65.50;;;;;;4938039;29;8846;-58
2022/04/11 04:32:55;;;;;;;;;33.25;28.00;5.50;67.70;;;;;;4937868;29;8798;-58
2022/04/11 04:35:21;;;;;;;;;30.50;27.50;5.30;68.50;;;;;;4937974;29;8901;-59
2022/04/11 04:37:46;;;;;;;;;29.00;27.75;5.40;68.10;;;;;;4937667;29;8998;-58
2022/04/11 04:40:12;;;;;;;;;26.75;25.75;5.60;67.50;;;;;;4952038;28;8804;-59
2022/04/11 04:42:39;;;;;;;;;30.00;25.00;5.80;67.40;;;;;;4956690;28;8848;-58
2022/04/11 04:45:06;;;;;;;;;25.00;24.25;5.90;65.80;;;;;;4954214;28;8897;-59
2022/04/11 04:47:32;;;;;;;;;23.75;23.75;5.90;66.30;;;;;;4942048;29;8795;-59
2022/04/11 04:49:58;;;;;;;;;25.75;22.75;6.00;66.50;;;;;;4938533;28;8816;-56
2022/04/11 04:52:24;;;;;;;;;21.75;21.75;6.10;66.20;;;;;;4947121;29;8864;-58
2022/04/11 04:54:49;;;;;;;;;26.00;24.50;6.20;65.40;;;;;;4937477;29;9331;-57
2022/04/11 04:57:15;;;;;;;;;28.75;27.00;6.30;65.00;;;;;;4938663;28;8806;-58
2022/04/11 04:59:41;;;;;;;;;28.50;26.25;5.90;67.00;;;;;;4956554;28;8820;-57
2022/04/11 05:02:07;;;;;;;;;23.25;19.75;5.70;68.00;;;;;;4956404;28;8847;-57
2022/04/11 05:04:33;;;;;;;;;29.75;27.50;5.70;68.70;;;;;;4951875;28;8799;-57
2022/04/11 05:06:58;;;;;;;;;26.25;22.75;6.10;67.70;;;;;;4945936;29;8795;-58
2022/04/11 05:09:24;;;;;;;;;28.25;27.00;6.20;66.50;;;;;;4953583;28;8811;-53
2022/04/11 05:11:50;;;;;;;;;27.75;27.75;5.90;68.00;;;;;;4950415;28;8785;-54
2022/04/11 05:14:16;;;;;;;;;25.50;23.50;6.00;67.10;;;;;;4952644;28;8791;-54
2022/04/11 05:16:41;;;;;;;;;30.00;26.25;6.10;67.60;;;;;;4955792;28;8817;-55
2022/04/11 05:19:07;;;;;;;;;26.75;26.75;6.20;66.70;;;;;;4956199;28;9419;-55
2022/04/11 05:21:33;;;;;;;;;22.75;21.50;6.20;66.30;;;;;;4956520;28;8760;-54
2022/04/11 05:23:58;;;;;;;;;21.75;21.75;6.30;66.20;;;;;;4956034;28;8850;-54
2022/04/11 05:26:24;;;;;;;;;25.00;21.25;6.00;67.00;;;;;;4956447;28;8784;-54
2022/04/11 05:28:50;;;;;;;;;22.00;18.50;6.00;67.40;;;;;;4956098;28;9435;-54
2022/04/11 05:31:17;;;;;;;;;24.00;24.00;6.20;66.40;;;;;;4956167;29;8780;-52
2022/04/11 05:33:43;;;;;;;;;22.00;21.25;6.20;67.20;;;;;;4956088;29;8890;-52
2022/04/11 05:36:09;;;;;;;;;23.25;22.75;6.20;67.20;;;;;;4956384;29;8891;-52
2022/04/11 05:38:35;;;;;;;;;16.00;16.00;6.20;67.20;;;;;;4956463;28;8787;-54
2022/04/11 05:41:01;;;;;;;;;25.00;22.25;6.20;67.50;;;;;;4956085;29;8789;-50
2022/04/11 05:43:26;;;;;;;;;18.50;18.50;6.30;67.40;;;;;;4956249;29;8830;-55
2022/04/11 05:45:52;;;;;;;;;23.50;19.50;6.10;68.20;;;;;;4955972;28;8769;-52
2022/04/11 05:48:18;;;;;;;;;19.00;19.00;6.10;68.80;;;;;;4956024;28;8780;-52
2022/04/11 05:50:44;;;;;;;;;22.00;19.50;6.50;67.70;;;;;;4955751;28;8850;-53
2022/04/11 05:53:10;;;;;;;;;15.00;14.75;6.60;66.30;;;;;;4956294;28;8808;-53
2022/04/11 05:55:36;;;;;;;;;23.50;22.00;6.50;67.40;;;;;;4956193;29;8780;-53
2022/04/11 05:58:01;;;;;;;;;18.25;14.75;6.30;69.30;;;;;;4955959;28;8820;-54
2022/04/11 06:00:28;;;;;;;;;15.75;15.75;6.30;68.90;;;;;;4956143;28;8840;-53
2022/04/11 06:02:54;;;;;;;;;21.00;20.00;6.60;67.90;;;;;;4956024;29;8800;-54
2022/04/11 06:05:19;;;;;;;;;21.00;17.75;6.60;68.10;;;;;;4955722;28;9495;-52
2022/04/11 06:07:45;;;;;;;;;23.00;20.00;7.00;66.70;;;;;;4955882;29;8768;-54
2022/04/11 06:10:12;;;;;;;;;22.75;21.50;7.50;64.80;;;;;;4956272;28;8811;-51
2022/04/11 06:12:38;;;;;;;;;17.25;17.25;7.70;61.90;;;;;;4956137;28;8879;-49
2022/04/11 06:15:05;;;;;;;;;18.75;17.00;7.40;63.40;;;;;;4956057;28;8891;-54
2022/04/11 06:17:31;;;;;;;;;22.25;19.75;7.20;64.80;;;;;;4955747;29;8776;-53
2022/04/11 06:19:58;;;;;;;;;16.75;16.75;7.40;64.70;;;;;;4955716;29;8788;-53
2022/04/11 06:22:25;;;;;;;;;17.50;17.50;7.30;64.00;;;;;;4955914;29;8831;-53
2022/04/11 06:24:58;;;;;;;;;19.25;18.00;7.60;62.40;;;;;;4956016;29;8807;-53
2022/04/11 06:27:23;;;;;;;;;18.25;17.00;7.90;62.40;;;;;;4955848;29;8773;-54
2022/04/11 06:29:56;;;;;;;;;11.00;11.00;7.60;62.30;;;;;;4955771;29;8816;-54
2022/04/11 06:32:29;;;;;;;;;11.75;11.75;7.40;63.70;;;;;;4955774;28;8863;-53
2022/04/11 06:34:56;;;;;;;;;15.50;15.50;8.10;61.40;;;;;;4955723;28;8879;-53
2022/04/11 06:37:23;;;;;;;;;15.50;15.50;8.40;59.40;;;;;;4958019;28;8768;-53
2022/04/11 06:39:50;;;;;;;;;14.75;14.00;8.70;58.20;;;;;;4959436;28;8791;-52
2022/04/11 06:42:15;;;;;;;;;17.25;15.25;8.70;55.60;;;;;;4959044;28;8808;-53
2022/04/11 06:44:41;;;;;;;;;19.50;18.75;9.10;56.30;;;;;;4959216;28;8863;-53
2022/04/11 06:47:08;;;;;;;;;21.50;20.00;9.00;56.10;;;;;;4959239;28;8796;-55
2022/04/11 06:49:35;;;;;;;;;17.50;15.75;8.60;58.30;;;;;;4959229;28;8785;-53
2022/04/11 06:52:01;;;;;;;;;22.00;20.25;8.10;58.70;;;;;;4958763;28;8823;-54
2022/04/11 06:54:27;;;;;;;;;19.25;19.25;8.40;59.10;;;;;;4958831;28;8808;-54
2022/04/11 06:56:53;;;;;;;;;26.50;25.00;8.40;58.80;;;;;;4958761;28;8780;-55
2022/04/11 06:59:18;;;;;;;;;28.50;24.75;8.60;59.30;;;;;;4958686;28;8824;-54
2022/04/11 07:01:44;;;;;;;;;21.75;21.75;8.90;59.20;;;;;;4958547;28;8839;-55
2022/04/11 07:04:10;;;;;;;;;21.50;16.00;9.00;57.50;;;;;;4958466;28;8808;-55
2022/04/11 07:06:36;;;;;;;;;18.25;18.25;9.50;56.10;;;;;;4958446;28;8827;-54
2022/04/11 07:09:03;;;;;;;;;17.00;14.25;9.80;55.30;;;;;;4958499;28;8827;-54
2022/04/11 07:11:31;;;;;;;;;22.25;22.25;10.00;53.50;;;;;;4958395;28;8796;-51
2022/04/11 07:13:57;;;;;;;;;19.75;17.75;9.50;54.70;;;;;;4958329;28;9258;-54
2022/04/11 07:16:24;;;;;;;;;22.00;20.00;9.50;54.30;;;;;;4958474;28;8801;-54
2022/04/11 07:18:50;;;;;;;;;20.00;20.00;9.40;55.00;;;;;;4958226;28;8811;-54
2022/04/11 07:21:17;;;;;;;;;23.25;20.25;9.50;54.70;;;;;;4958229;28;8785;-54
2022/04/11 07:23:43;;;;;;;;;16.00;13.50;9.70;54.40;;;;;;4958220;28;9486;-54
2022/04/11 07:26:09;;;;;;;;;26.00;20.50;10.10;52.50;;;;;;4958110;28;8804;-56
2022/04/11 07:28:35;;;;;;;;;15.50;15.50;9.90;52.70;;;;;;4958139;28;8935;-55
2022/04/11 07:31:00;;;;;;;;;14.00;13.00;9.60;53.30;;;;;;4958541;28;8808;-56
2022/04/11 07:33:26;;;;;;;;;16.00;15.25;9.60;52.10;;;;;;4958129;28;8821;-56
2022/04/11 07:35:52;;;;;;;;;15.75;13.25;9.30;53.50;;;;;;4958206;28;8792;-54
2022/04/11 07:38:19;;;;;;;;;13.50;13.50;9.00;55.00;;;;;;4957963;28;8799;-54
2022/04/11 07:40:45;;;;;;;;;14.25;14.00;9.20;55.20;;;;;;4958133;28;8772;-57
2022/04/11 07:43:10;;;;;;;;;15.50;15.50;9.30;55.10;;;;;;4957917;28;8832;-55
2022/04/11 07:45:36;;;;;;;;;11.00;11.00;9.60;54.00;;;;;;4957834;28;8784;-55
2022/04/11 07:48:02;;;;;;;;;8.25;8.25;9.80;53.20;;;;;;4957673;28;8796;-55
2022/04/11 07:50:28;;;;;;;;;11.50;11.50;10.50;52.00;;;;;;4957812;28;8804;-57
2022/04/11 07:52:54;;;;;;;;;13.75;13.75;11.10;50.40;;;;;;4957756;28;8823;-58
2022/04/11 07:55:20;;;;;;;;;9.00;9.00;10.80;51.80;;;;;;4957754;28;8792;-56
2022/04/11 07:57:46;;;;;;;;;9.67;9.67;10.60;49.10;;;;;;4957778;28;8795;-56
2022/04/11 08:00:12;;;;;;;;;14.00;14.00;11.10;49.40;;;;;;4957707;28;8820;-56
2022/04/11 08:02:38;;;;;;;;;14.25;10.50;11.50;48.30;;;;;;4957544;28;8812;-58
2022/04/11 08:05:05;;;;;;;;;12.00;10.67;11.60;48.10;;;;;;4956200;28;9447;-59
2022/04/11 08:07:34;;;;;;;;;13.75;12.00;11.90;47.00;;;;;;4956110;28;8814;-59
2022/04/11 08:10:02;;;;;;;;;12.00;9.67;11.30;46.70;;;;;;4956204;28;8784;-56
2022/04/11 08:12:28;;;;;;;;;11.33;11.33;11.10;46.80;;;;;;4956040;28;8780;-58
2022/04/11 08:14:54;;;;;;;;;20.25;19.25;11.00;48.50;;;;;;4955760;28;8816;-54
2022/04/11 08:17:19;;;;;;;;;11.00;11.00;10.40;50.00;;;;;;4955035;28;8917;-55
2022/04/11 08:19:45;;;;;;;;;13.00;12.00;10.30;50.50;;;;;;4955933;28;9451;-58
2022/04/11 08:22:11;;;;;;;;;12.67;12.67;10.40;50.10;;;;;;4955681;28;8816;-59
2022/04/11 08:24:37;;;;;;;;;12.00;12.00;10.60;49.30;;;;;;4956038;28;8788;-58
2022/04/11 08:27:03;;;;;;;;;14.33;11.33;11.10;49.50;;;;;;4955888;28;8883;-58
2022/04/11 08:29:28;;;;;;;;;11.00;11.00;11.30;48.80;;;;;;4952287;28;8796;-60
2022/04/11 08:31:54;;;;;;;;;10.33;10.33;11.00;47.40;;;;;;4955765;28;8791;-59
2022/04/11 08:34:20;;;;;;;;;13.67;13.00;11.00;49.00;;;;;;4955793;28;8789;-58
2022/04/11 08:36:46;;;;;;;;;11.33;11.33;10.90;48.60;;;;;;4956129;28;8781;-57
2022/04/11 08:39:12;;;;;;;;;14.33;13.00;10.90;48.70;;;;;;4956882;28;8797;-59
2022/04/11 08:41:38;;;;;;;;;10.67;10.67;10.90;48.60;;;;;;4956937;28;8769;-59
2022/04/11 08:44:05;;;;;;;;;12.00;11.00;10.70;49.50;;;;;;4956712;28;8851;-62
2022/04/11 08:46:32;;;;;;;;;12.33;12.33;10.60;48.10;;;;;;4956964;28;8803;-59
2022/04/11 08:49:03;;;;;;;;;12.67;12.67;10.90;48.70;;;;;;4956991;28;8788;-55
2022/04/11 08:51:36;;;;;;;;;13.00;11.33;11.50;48.00;;;;;;4956520;28;8820;-58
2022/04/11 08:54:04;;;;;;;;;12.00;12.00;11.10;48.20;;;;;;4956790;28;8776;-57
2022/04/11 08:56:31;;;;;;;;;13.33;10.33;11.20;46.90;;;;;;4956598;28;9560;-59
2022/04/11 08:58:58;;;;;;;;;14.67;14.00;11.40;46.90;;;;;;4955843;28;8867;-60
2022/04/11 09:01:25;;;;;;;;;13.00;12.00;11.50;47.80;;;;;;4956533;28;8911;-60
2022/04/11 09:03:51;;;;;;;;;9.00;9.00;11.60;46.70;;;;;;4956440;28;8819;-59
2022/04/11 09:06:18;;;;;;;;;16.00;11.00;11.50;45.70;;;;;;4956669;28;8804;-57
2022/04/11 09:08:58;;;;;;;;;10.67;10.00;11.90;45.70;;;;;;4956449;28;8843;-59
2022/04/11 09:11:31;;;;;;;;;11.67;11.67;12.00;43.20;;;;;;4956433;28;8812;-57
2022/04/11 09:14:02;;;;;;;;;7.33;5.33;12.20;44.40;;;;;;4956736;28;8800;-59
2022/04/11 09:16:41;;;;;;;;;15.67;13.33;12.70;43.20;;;;;;4956921;28;8804;-60
2022/04/11 09:19:17;;;;;;;;;17.33;13.67;12.50;42.10;;;;;;4956548;28;8822;-56
2022/04/11 09:21:46;;;;;;;;;15.33;12.67;12.10;43.40;;;;;;4956129;28;8912;-55
2022/04/11 09:24:22;;;;;;;;;12.67;12.67;12.00;43.70;;;;;;4955931;28;8887;-59
2022/04/11 09:26:51;;;;;;;;;9.00;9.00;12.00;45.20;;;;;;4956475;28;8776;-57
2022/04/11 09:29:17;;;;;;;;;9.00;9.00;11.80;44.00;;;;;;4956144;28;8847;-61
2022/04/11 09:31:45;;;;;;;;;10.00;10.00;11.50;44.10;;;;;;4956466;28;8924;-58
2022/04/11 09:34:20;;;;;;;;;10.67;10.33;11.50;45.70;;;;;;4956137;28;8772;-65
2022/04/11 09:36:50;;;;;;;;;12.00;11.00;11.70;47.00;;;;;;4956379;28;8784;-58
2022/04/11 09:39:21;;;;;;;;;11.00;11.00;12.50;46.30;;;;;;4956387;28;8784;-63
2022/04/11 09:41:47;;;;;;;;;13.00;12.00;12.20;44.90;;;;;;4956313;28;8910;-58
2022/04/11 09:44:20;;;;;;;;;12.67;12.67;12.30;45.40;;;;;;4955698;28;9597;-58
2022/04/11 09:46:46;;;;;;;;;14.67;13.00;12.10;45.00;;;;;;4956020;29;8780;-59
2022/04/11 09:49:12;;;;;;;;;12.00;10.00;12.30;45.60;;;;;;4956074;29;8799;-58
2022/04/11 09:52:04;;;;;;;;;9.33;9.00;12.20;44.70;;;;;;4955715;29;8811;-58
2022/04/11 09:54:30;;;;;;;;;14.00;13.00;12.80;43.70;;;;;;4956080;28;8790;-59
2022/04/11 09:56:59;;;;;;;;;12.00;11.00;13.30;42.90;;;;;;4955404;28;8769;-60
2022/04/11 09:59:26;;;;;;;;;11.67;11.00;13.30;42.00;;;;;;4955623;29;8800;-57
2022/04/11 10:01:53;;;;;;;;;11.33;10.33;13.40;41.30;;;;;;4955233;28;8772;-55
2022/04/11 10:04:20;;;;;;;;;10.00;9.00;13.40;41.60;;;;;;4954953;28;8796;-57
2022/04/11 10:06:46;;;;;;;;;13.33;12.33;12.50;42.60;;;;;;4955913;28;8789;-56
2022/04/11 10:09:14;;;;;;;;;12.67;10.67;12.20;44.40;;;;;;4955746;28;8806;-61
2022/04/11 10:11:42;;;;;;;;;13.00;13.00;12.00;44.00;;;;;;4959050;28;8788;-62
2022/04/11 10:14:11;;;;;;;;;14.67;14.33;12.40;44.20;;;;;;4959471;28;8796;-59
2022/04/11 10:16:44;;;;;;;;;13.00;13.00;12.90;41.90;;;;;;4959410;28;8792;-57
2022/04/11 10:19:11;;;;;;;;;12.33;12.00;12.90;42.40;;;;;;4959454;28;8835;-57
2022/04/11 10:21:42;;;;;;;;;14.67;12.67;12.80;42.10;;;;;;4959385;28;8838;-59
2022/04/11 10:24:27;;;;;;;;;13.33;12.00;13.20;40.70;;;;;;4959463;28;8800;-57
2022/04/11 10:26:55;;;;;;;;;14.33;13.33;13.30;42.70;;;;;;4959194;28;8781;-57
2022/04/11 10:29:36;;;;;;;;;10.33;10.33;13.60;43.20;;;;;;4958931;28;8851;-58
2022/04/11 10:32:11;;;;;;;;;7.00;7.00;13.20;39.30;;;;;;4956684;28;8788;-56
2022/04/11 10:34:50;;;;;;;;;7.33;7.33;13.00;37.00;;;;;;4955806;28;8827;-55
2022/04/11 10:37:21;;;;;;;;;11.67;11.67;12.80;38.20;;;;;;4955963;28;8800;-56
2022/04/11 10:39:47;;;;;;;;;9.67;9.67;13.00;40.60;;;;;;4957693;28;8768;-56
2022/04/11 10:42:16;;;;;;;;;6.00;6.00;13.30;39.80;;;;;;4957941;28;8820;-52
2022/04/11 10:44:42;;;;;;;;;8.00;8.00;13.10;37.10;;;;;;4956973;28;9440;-55
2022/04/11 10:47:08;;;;;;;;;16.67;15.67;13.10;37.80;;;;;;4957485;28;8843;-56
2022/04/11 10:49:53;;;;;;;;;13.00;12.33;13.30;37.50;;;;;;4957489;28;8784;-55
2022/04/11 10:52:24;;;;;;;;;10.33;8.00;13.40;37.40;;;;;;4956600;28;9485;-60
2022/04/11 10:54:50;;;;;;;;;6.33;6.33;14.00;36.80;;;;;;4953765;28;8787;-59
2022/04/11 10:57:35;;;;;;;;;6.00;6.00;13.80;35.80;;;;;;4951060;28;9437;-56
2022/04/11 11:00:07;;;;;;;;;5.33;5.33;13.80;34.50;;;;;;4952522;28;8889;-62
2022/04/11 11:05:44;;;;;;;;;12.67;11.67;14.00;35.50;;;;;;4948957;28;8769;-58
2022/04/11 11:08:10;;;;;;;;;10.33;10.33;13.70;36.20;;;;;;4947022;28;8974;-61
2022/04/11 11:10:45;;;;;;;;;12.00;11.00;13.70;36.60;;;;;;4958734;28;8788;-59
2022/04/11 11:13:35;;;;;;;;;12.00;12.00;13.60;36.70;;;;;;4958673;28;8795;-57
2022/04/11 11:16:07;;;;;;;;;13.00;13.00;13.30;37.80;;;;;;4958705;28;9447;-60
2022/04/11 11:18:48;;;;;;;;;13.33;12.00;14.00;39.10;;;;;;4950020;28;8891;-59
2022/04/11 11:21:27;;;;;;;;;13.33;12.33;14.70;37.10;;;;;;4947461;29;8799;-62
2022/04/11 11:24:09;;;;;;;;;11.00;9.00;15.20;36.00;;;;;;4938473;28;9458;-62
2022/04/11 11:26:54;;;;;;;;;12.00;11.67;15.20;35.70;;;;;;4949117;28;8811;-62
2022/04/11 11:29:30;;;;;;;;;9.00;7.67;15.00;36.30;;;;;;4945543;28;8836;-58
2022/04/11 11:31:58;;;;;;;;;8.67;8.33;15.20;35.60;;;;;;4958001;28;8842;-62
2022/04/11 11:34:26;;;;;;;;;7.33;7.33;15.20;34.40;;;;;;4948231;29;8807;-58
2022/04/11 11:37:00;;;;;;;;;10.00;10.00;15.00;35.80;;;;;;4956617;28;8796;-57
2022/04/11 11:39:27;;;;;;;;;7.00;7.00;15.10;33.70;;;;;;4958024;28;8858;-61
2022/04/11 11:42:00;;;;;;;;;10.00;10.00;14.20;33.80;;;;;;4957760;28;8800;-58
2022/04/11 11:44:27;;;;;;;;;13.67;12.33;13.80;35.00;;;;;;4958472;28;8843;-59
2022/04/11 11:47:02;;;;;;;;;5.33;3.67;13.70;36.90;;;;;;4948489;28;8811;-56
2022/04/11 11:49:37;;;;;;;;;16.00;14.67;14.30;37.30;;;;;;4946780;28;8995;-58
2022/04/11 11:52:03;;;;;;;;;13.00;12.00;14.20;35.90;;;;;;4944617;28;8845;-58
2022/04/11 11:54:39;;;;;;;;;8.67;7.00;14.20;35.20;;;;;;4938565;29;8806;-58
2022/04/11 11:57:21;;;;;;;;;13.00;12.00;14.10;35.10;;;;;;4942167;28;8799;-58
2022/04/11 11:59:59;;;;;;;;;20.00;19.00;14.30;35.00;;;;;;4947147;28;8832;-60
2022/04/11 12:05:25;;;;;;;;;15.00;14.00;14.00;35.30;;;;;;4947957;28;8772;-58
2022/04/11 12:08:14;;;;;;;;;16.00;15.00;13.80;35.30;;;;;;4943642;28;8778;-58
2022/04/11 12:10:40;;;;;;;;;15.00;14.33;14.50;35.20;;;;;;4949115;28;8796;-57
2022/04/11 12:13:06;;;;;;;;;14.67;14.00;14.40;34.70;;;;;;4942883;29;8811;-61
2022/04/11 12:15:34;;;;;;;;;15.33;15.33;14.30;35.40;;;;;;4952578;28;8780;-58
2022/04/11 12:18:03;;;;;;;;;14.00;14.00;13.90;35.00;;;;;;4957484;28;8773;-60
2022/04/11 12:20:33;;;;;;;;;15.33;12.00;13.60;35.50;;;;;;4957229;28;8903;-61
2022/04/11 12:23:02;;;;;;;;;15.67;14.67;14.10;35.80;;;;;;4957128;28;8808;-61
2022/04/11 12:25:36;;;;;;;;;11.67;11.67;14.20;34.40;;;;;;4957414;28;8789;-61
2022/04/11 12:28:17;;;;;;;;;10.00;10.00;14.00;34.50;;;;;;4956977;28;9391;-60
2022/04/11 12:30:45;;;;;;;;;12.00;12.00;14.80;33.80;;;;;;4957403;28;8804;-62
2022/04/11 12:33:35;;;;;;;;;11.00;11.00;15.80;33.50;;;;;;4956903;28;8795;-62
2022/04/11 12:36:09;;;;;;;;;13.33;11.00;16.20;32.30;;;;;;4957143;28;8792;-60
2022/04/11 12:39:09;;;;;;;;;15.00;13.00;17.00;30.90;;;;;;4956969;28;8784;-58
2022/04/11 12:41:43;;;;;;;;;10.33;10.00;16.10;30.40;;;;;;4916462;29;8813;-60
2022/04/11 12:44:15;;;;;;;;;7.00;7.00;15.80;30.90;;;;;;4915875;29;9477;-59
2022/04/11 12:46:45;;;;;;;;;9.33;9.33;15.40;31.00;;;;;;4916377;29;8906;-59
2022/04/11 12:49:16;;;;;;;;;13.00;12.67;15.40;31.40;;;;;;4916001;29;8806;-59
2022/04/11 12:52:03;;;;;;;;;13.33;12.33;15.50;32.70;;;;;;4916273;29;8808;-60
2022/04/11 12:54:42;;;;;;;;;12.00;12.00;15.20;33.40;;;;;;4916009;29;9485;-57
2022/04/11 12:57:12;;;;;;;;;18.00;18.00;15.50;33.90;;;;;;4915853;29;8986;-60